createdAt,value
2022-08-03T00:10:52.120Z,19.69
2022-08-03T00:25:57.552Z,19.50
2022-08-03T00:41:03.066Z,19.44
2022-08-03T00:56:08.787Z,19.19
2022-08-03T01:11:22.672Z,19.31
2022-08-03T01:26:57.542Z,19.13
2022-08-03T01:42:07.016Z,19.13
2022-08-03T01:57:13.615Z,19.06
2022-08-03T02:12:20.135Z,18.88
2022-08-03T02:27:28.070Z,18.88
2022-08-03T02:42:34.899Z,18.81
2022-08-03T02:57:41.924Z,18.81
2022-08-03T03:12:49.842Z,18.69
2022-08-03T03:27:55.450Z,18.75
2022-08-03T03:43:03.383Z,18.56
2022-08-03T03:58:09.676Z,18.56
2022-08-03T04:13:18.928Z,18.44
2022-08-03T04:28:30.885Z,18.50
2022-08-03T04:43:40.986Z,18.56
2022-08-03T04:58:46.642Z,18.75
2022-08-03T05:13:52.221Z,18.81
2022-08-03T05:28:57.812Z,18.94
2022-08-03T05:44:03.389Z,19.38
2022-08-03T05:59:35.864Z,19.75
2022-08-03T06:14:34.511Z,20.13
2022-08-03T06:29:40.015Z,20.69
2022-08-03T06:44:45.458Z,21.38
2022-08-03T07:00:10.871Z,21.94
2022-08-03T07:15:20.461Z,22.75
2022-08-03T07:30:42.416Z,23.25
2022-08-03T07:45:48.112Z,23.69
2022-08-03T08:00:54.276Z,24.19
2022-08-03T08:16:00.047Z,24.69
2022-08-03T08:31:05.672Z,25.13
2022-08-03T08:46:23.659Z,25.56
2022-08-03T09:01:30.297Z,26.38
2022-08-03T09:16:35.970Z,26.50
2022-08-03T09:31:44.339Z,26.50
2022-08-03T09:46:54.668Z,26.94
2022-08-03T10:02:02.087Z,27.06
2022-08-03T10:17:07.709Z,26.88
2022-08-03T10:32:17.573Z,26.38
2022-08-03T10:47:23.301Z,26.38
2022-08-03T11:03:09.287Z,26.50
2022-08-03T11:18:15.904Z,26.06
2022-08-03T11:33:33.713Z,26.38
2022-08-03T11:48:41.557Z,27.06
2022-08-03T12:03:47.499Z,27.63
2022-08-03T12:18:59.139Z,27.94
2022-08-03T12:34:07.545Z,28.06
2022-08-03T12:49:18.057Z,27.56
2022-08-03T13:04:30.079Z,27.44
2022-08-03T13:19:40.020Z,26.88
2022-08-03T13:34:45.708Z,26.94
2022-08-03T13:50:00.497Z,27.06
2022-08-03T14:05:09.094Z,27.00
2022-08-03T14:20:38.849Z,26.56
2022-08-03T14:35:42.129Z,26.50
2022-08-03T14:50:51.470Z,26.31
2022-08-03T15:05:58.140Z,26.00
2022-08-03T15:21:04.023Z,25.94
2022-08-03T15:36:10.046Z,25.81
2022-08-03T15:51:16.014Z,25.50
2022-08-03T16:06:35.234Z,25.69
2022-08-03T16:21:48.802Z,25.38
2022-08-03T16:36:56.093Z,25.19
2022-08-03T16:52:02.043Z,25.13
2022-08-03T17:07:08.795Z,24.94
2022-08-03T17:22:18.639Z,24.94
2022-08-03T17:37:50.018Z,24.69
2022-08-03T17:52:51.700Z,24.63
2022-08-03T18:08:02.347Z,24.44
2022-08-03T18:23:08.614Z,24.31
2022-08-03T18:38:16.768Z,24.13
2022-08-03T18:54:02.532Z,24.00
2022-08-03T19:09:03.159Z,23.75
2022-08-03T19:24:10.555Z,23.19
2022-08-03T19:39:16.738Z,23.25
2022-08-03T19:54:25.537Z,23.00
2022-08-03T20:09:36.880Z,22.94
2022-08-03T20:24:53.027Z,22.88
2022-08-03T20:39:58.844Z,22.75
2022-08-03T20:55:13.028Z,22.63
2022-08-03T21:10:24.708Z,22.63
2022-08-03T21:25:35.221Z,22.50
2022-08-03T21:40:41.778Z,22.38
2022-08-03T21:55:54.869Z,22.25
2022-08-03T22:11:04.366Z,22.13
2022-08-03T22:26:13.493Z,22.06
2022-08-03T22:41:20.073Z,21.94
2022-08-03T22:56:26.343Z,21.75
2022-08-03T23:11:32.070Z,21.75
2022-08-03T23:26:39.575Z,21.63
2022-08-03T23:41:46.855Z,21.56
2022-08-03T23:57:00.579Z,21.50
